Terminal Aerodrome Forecast
Issued by NWS

Home | Current Version | Previous Version | Text Only | Print | Product List | Glossary On
Versions: 1 2 3 4 5 6 7 8 9 10 11 12 13 14 15 16 17 18 19 20 21
000
FTUS46 KSEW 200200 AAA
TAFSEA
TAF AMD
KSEA 200258Z 2003/2106 21008KT P6SM SCT050 BKN100 BKN250
     FM201000 19006KT P6SM OVC014
     FM202000 22006KT P6SM BKN025
     FM202200 22006KT P6SM SCT040=

USA.gov is the U.S. government's official web portal to all federal, state and local government web resources and services.